Time;durP1;ratioP1;P1;durP2;ratioP2;P2;SDS_P1;SDS_P2;PMS_P1;PMS_P2;Temp;Humidity;BMP_temperature;BMP_pressure;BME280_temperature;BME280_humidity;BME280_pressure;Samples;Min_cycle;Max_cycle;Signal;HPM_P1;HPM_P2
2023/07/28 00:00:03;;;;;;;;;;;25.10;58.00;;;;;;5082813;28;20741;-36
2023/07/28 00:02:28;;;;;;;;;;;25.10;57.00;;;;;;5082700;28;19916;-37
2023/07/28 00:04:54;;;;;;;;;;;25.00;56.50;;;;;;5082998;28;20023;-36
2023/07/28 00:07:20;;;;;;;;;;;25.00;57.30;;;;;;5076212;28;19921;-37
2023/07/28 00:09:46;;;;;;;;;;;25.00;57.10;;;;;;5082710;28;19927;-36
2023/07/28 00:12:12;;;;;;;;;;;25.00;56.80;;;;;;5082882;28;19921;-36
2023/07/28 00:14:38;;;;;;;;;;;24.90;57.10;;;;;;5080968;28;19999;-36
2023/07/28 00:17:04;;;;;;;;;;;24.90;57.20;;;;;;5082578;28;19919;-36
2023/07/28 00:19:30;;;;;;;;;;;24.90;56.90;;;;;;5082360;28;19918;-36
2023/07/28 00:21:56;;;;;;;;;;;24.90;57.50;;;;;;5082190;28;19912;-36
2023/07/28 00:24:22;;;;;;;;;;;24.90;57.50;;;;;;5082647;28;19912;-36
2023/07/28 00:26:47;;;;;;;;;;;24.80;56.90;;;;;;5082260;28;19976;-36
2023/07/28 00:29:13;;;;;;;;;;;24.80;57.40;;;;;;5082813;28;20575;-36
2023/07/28 00:31:39;;;;;;;;;;;24.80;57.50;;;;;;5081559;28;19916;-36
2023/07/28 00:34:05;;;;;;;;;;;24.80;56.70;;;;;;5082858;28;19935;-36
2023/07/28 00:36:31;;;;;;;;;;;24.80;56.80;;;;;;5063823;28;19912;-36
2023/07/28 00:38:57;;;;;;;;;;;24.70;57.10;;;;;;5082516;28;20003;-36
2023/07/28 00:41:23;;;;;;;;;;;24.70;56.90;;;;;;5082279;28;19919;-36
2023/07/28 00:43:49;;;;;;;;;;;24.70;57.00;;;;;;5082967;28;19919;-36
2023/07/28 00:46:15;;;;;;;;;;;24.70;57.00;;;;;;5082358;28;20364;-36
2023/07/28 00:48:40;;;;;;;;;;;24.60;58.40;;;;;;5082369;28;19966;-36
2023/07/28 00:51:07;;;;;;;;;;;24.60;61.60;;;;;;5062688;28;19920;-36
2023/07/28 00:53:33;;;;;;;;;;;24.60;62.00;;;;;;5082060;28;19991;-36
2023/07/28 00:55:59;;;;;;;;;;;24.60;62.60;;;;;;5082574;28;19908;-36
2023/07/28 00:58:25;;;;;;;;;;;24.60;62.90;;;;;;5082003;28;19913;-36
2023/07/28 01:00:50;;;;;;;;;;;24.60;63.10;;;;;;5082300;28;19954;-36
2023/07/28 01:03:17;;;;;;;;;;;24.60;63.20;;;;;;5082495;28;19915;-36
2023/07/28 01:06:02;;;;;;;;;;;24.60;63.30;;;;;;5081609;28;19981;-36
2023/07/28 01:08:36;;;;;;;;;;;24.60;63.20;;;;;;5078223;28;19935;-37
2023/07/28 01:11:03;;;;;;;;;;;24.60;63.20;;;;;;5075646;28;19927;-36
2023/07/28 01:13:29;;;;;;;;;;;24.70;63.30;;;;;;5081908;28;19998;-36
2023/07/28 01:15:54;;;;;;;;;;;24.70;63.40;;;;;;5082079;28;19913;-36
2023/07/28 01:18:20;;;;;;;;;;;24.70;63.40;;;;;;5080675;28;19980;-36
2023/07/28 01:20:47;;;;;;;;;;;24.70;63.50;;;;;;5082125;28;20292;-36
2023/07/28 01:23:20;;;;;;;;;;;24.80;63.60;;;;;;5082196;28;19958;-36
2023/07/28 01:25:52;;;;;;;;;;;24.80;63.60;;;;;;5081815;28;19912;-36
2023/07/28 01:28:18;;;;;;;;;;;24.80;63.70;;;;;;5062547;28;19916;-36
2023/07/28 01:30:44;;;;;;;;;;;24.80;63.80;;;;;;5081635;28;19937;-36
2023/07/28 01:33:10;;;;;;;;;;;24.80;63.70;;;;;;5067714;28;19952;-36
2023/07/28 01:35:37;;;;;;;;;;;24.90;63.80;;;;;;5085545;28;20003;-37
2023/07/28 01:38:03;;;;;;;;;;;24.90;63.90;;;;;;5085551;28;19934;-36
2023/07/28 01:40:28;;;;;;;;;;;24.90;63.90;;;;;;5065872;28;19916;-36
2023/07/28 01:42:54;;;;;;;;;;;24.90;63.90;;;;;;5086004;28;19920;-36
2023/07/28 01:45:20;;;;;;;;;;;24.90;63.80;;;;;;5078591;28;19913;-36
2023/07/28 01:47:46;;;;;;;;;;;24.90;63.90;;;;;;5085185;28;19912;-36
2023/07/28 01:50:12;;;;;;;;;;;25.00;63.90;;;;;;5085328;28;19912;-36
2023/07/28 01:52:38;;;;;;;;;;;25.00;63.90;;;;;;5084389;28;19978;-36
2023/07/28 01:55:04;;;;;;;;;;;25.00;64.00;;;;;;5077224;28;19919;-36
2023/07/28 01:57:32;;;;;;;;;;;25.00;63.90;;;;;;5078660;28;20284;-36
2023/07/28 01:59:58;;;;;;;;;;;25.00;63.90;;;;;;5081994;28;20012;-36
2023/07/28 02:02:24;;;;;;;;;;;25.00;63.90;;;;;;5084413;28;19912;-36
2023/07/28 02:04:50;;;;;;;;;;;25.00;63.90;;;;;;5085055;28;19908;-36
2023/07/28 02:07:15;;;;;;;;;;;25.00;63.90;;;;;;5084753;28;19967;-36
2023/07/28 02:09:41;;;;;;;;;;;25.00;63.90;;;;;;5083943;28;20023;-36
2023/07/28 02:12:07;;;;;;;;;;;25.10;64.00;;;;;;5085009;28;19920;-36
2023/07/28 02:14:33;;;;;;;;;;;25.10;64.00;;;;;;5083306;28;19912;-36
2023/07/28 02:16:59;;;;;;;;;;;25.10;64.00;;;;;;5085120;28;19920;-36
2023/07/28 02:19:25;;;;;;;;;;;25.10;64.00;;;;;;5084643;28;19971;-36
2023/07/28 02:21:51;;;;;;;;;;;25.10;64.10;;;;;;5084965;28;19969;-35
2023/07/28 02:24:17;;;;;;;;;;;25.10;64.00;;;;;;5084861;28;19916;-36
2023/07/28 02:26:43;;;;;;;;;;;25.10;64.10;;;;;;5084530;28;19913;-36
2023/07/28 02:29:08;;;;;;;;;;;25.10;64.00;;;;;;5066643;28;19916;-36
2023/07/28 02:31:34;;;;;;;;;;;25.20;64.20;;;;;;5084615;28;19920;-36
2023/07/28 02:34:00;;;;;;;;;;;25.10;64.10;;;;;;5084645;28;19954;-36
2023/07/28 02:36:26;;;;;;;;;;;25.20;64.20;;;;;;5081806;28;19912;-36
2023/07/28 02:38:52;;;;;;;;;;;25.20;64.20;;;;;;5083850;28;19955;-36
2023/07/28 02:41:18;;;;;;;;;;;25.20;64.20;;;;;;5084750;28;19916;-36
2023/07/28 02:43:44;;;;;;;;;;;25.20;64.20;;;;;;5082760;28;19920;-36
2023/07/28 02:46:10;;;;;;;;;;;25.20;64.20;;;;;;5084848;28;19920;-35
2023/07/28 02:48:35;;;;;;;;;;;25.20;64.20;;;;;;5084207;28;19912;-36
2023/07/28 02:51:02;;;;;;;;;;;25.20;64.20;;;;;;5084005;28;19920;-36
2023/07/28 02:53:27;;;;;;;;;;;25.20;64.30;;;;;;5083968;28;19923;-36
2023/07/28 02:55:53;;;;;;;;;;;25.20;64.30;;;;;;5076733;28;19985;-36
2023/07/28 02:58:19;;;;;;;;;;;25.20;64.40;;;;;;5082813;28;19920;-36
2023/07/28 03:00:46;;;;;;;;;;;25.20;64.40;;;;;;5080486;28;19975;-36
2023/07/28 03:03:12;;;;;;;;;;;25.20;64.40;;;;;;5082518;28;19912;-36
2023/07/28 03:05:38;;;;;;;;;;;25.20;64.40;;;;;;5082878;28;19951;-36
2023/07/28 03:08:04;;;;;;;;;;;25.20;64.40;;;;;;5079436;28;19913;-36
2023/07/28 03:10:30;;;;;;;;;;;25.20;64.50;;;;;;5083327;28;19974;-37
2023/07/28 03:12:56;;;;;;;;;;;25.20;64.50;;;;;;5083880;28;19950;-36
2023/07/28 03:15:22;;;;;;;;;;;25.20;64.60;;;;;;5083765;28;19919;-36
2023/07/28 03:17:48;;;;;;;;;;;25.20;64.60;;;;;;5083441;28;19916;-36
2023/07/28 03:20:14;;;;;;;;;;;25.20;64.70;;;;;;5083738;28;19943;-36
2023/07/28 03:22:40;;;;;;;;;;;25.20;64.80;;;;;;5083129;28;19908;-36
2023/07/28 03:25:06;;;;;;;;;;;25.20;64.70;;;;;;5080808;28;19940;-36
2023/07/28 03:27:32;;;;;;;;;;;25.20;64.80;;;;;;5083329;28;20337;-36
2023/07/28 03:29:58;;;;;;;;;;;25.20;64.90;;;;;;5083625;28;19912;-36
2023/07/28 03:32:24;;;;;;;;;;;25.20;65.60;;;;;;5082610;28;19927;-36
2023/07/28 03:34:49;;;;;;;;;;;25.30;65.10;;;;;;5083370;28;19913;-36
2023/07/28 03:37:15;;;;;;;;;;;25.30;65.00;;;;;;5082507;28;19908;-36
2023/07/28 03:39:41;;;;;;;;;;;25.30;65.20;;;;;;5076984;28;20540;-36
2023/07/28 03:42:07;;;;;;;;;;;25.30;65.30;;;;;;5083063;28;19912;-35
2023/07/28 03:44:33;;;;;;;;;;;25.20;65.10;;;;;;5083154;28;19912;-36
2023/07/28 03:46:59;;;;;;;;;;;25.30;65.20;;;;;;5065010;28;19932;-36
2023/07/28 03:49:45;;;;;;;;;;;25.20;65.20;;;;;;5082805;28;19919;-36
2023/07/28 03:52:11;;;;;;;;;;;25.30;65.40;;;;;;5000871;28;19981;-36
2023/07/28 03:54:37;;;;;;;;;;;25.30;65.40;;;;;;5001226;28;19944;-36
2023/07/28 03:57:03;;;;;;;;;;;25.20;65.40;;;;;;5001263;28;19949;-36
2023/07/28 03:59:29;;;;;;;;;;;25.30;65.50;;;;;;5000628;28;19913;-36
2023/07/28 04:01:55;;;;;;;;;;;25.20;65.60;;;;;;5000922;28;19921;-36
2023/07/28 04:04:21;;;;;;;;;;;25.30;65.70;;;;;;5000847;28;19925;-36
2023/07/28 04:06:49;;;;;;;;;;;25.30;65.80;;;;;;5000985;28;19994;-36
2023/07/28 04:09:15;;;;;;;;;;;25.30;65.70;;;;;;5005480;28;20038;-36
2023/07/28 04:11:42;;;;;;;;;;;25.30;65.80;;;;;;5000701;28;19932;-36
2023/07/28 04:14:08;;;;;;;;;;;25.30;66.00;;;;;;5000678;28;19917;-36
2023/07/28 04:16:34;;;;;;;;;;;25.20;66.00;;;;;;5000874;28;19914;-36
2023/07/28 04:19:00;;;;;;;;;;;25.30;66.10;;;;;;5001132;28;19945;-36
2023/07/28 04:21:26;;;;;;;;;;;25.30;66.20;;;;;;5000711;28;19917;-36
2023/07/28 04:23:52;;;;;;;;;;;25.30;66.20;;;;;;5000775;28;19918;-36
2023/07/28 04:26:18;;;;;;;;;;;25.30;66.20;;;;;;5001830;28;19917;-36
2023/07/28 04:28:44;;;;;;;;;;;25.20;66.30;;;;;;5020560;28;19951;-36
2023/07/28 04:31:10;;;;;;;;;;;25.20;66.40;;;;;;5082674;28;19987;-36
2023/07/28 04:33:36;;;;;;;;;;;25.20;66.40;;;;;;5082052;28;19912;-36
2023/07/28 04:36:05;;;;;;;;;;;25.20;66.50;;;;;;5082133;28;19971;-36
2023/07/28 04:38:30;;;;;;;;;;;25.20;66.50;;;;;;5082193;28;20006;-36
2023/07/28 04:40:56;;;;;;;;;;;25.20;66.50;;;;;;5079887;28;19963;-36
2023/07/28 04:43:22;;;;;;;;;;;25.20;66.60;;;;;;5081800;28;19934;-36
2023/07/28 04:45:48;;;;;;;;;;;25.20;66.70;;;;;;5082257;28;19916;-36
2023/07/28 04:48:14;;;;;;;;;;;25.20;66.70;;;;;;5082412;28;19951;-36
2023/07/28 04:50:40;;;;;;;;;;;25.20;66.90;;;;;;5081569;28;19912;-36
2023/07/28 04:53:06;;;;;;;;;;;25.20;66.90;;;;;;5081445;28;19919;-36
2023/07/28 04:55:31;;;;;;;;;;;25.20;66.90;;;;;;5081586;28;20347;-36
2023/07/28 04:57:57;;;;;;;;;;;25.20;67.10;;;;;;5081622;28;19928;-36
2023/07/28 05:00:23;;;;;;;;;;;25.20;67.10;;;;;;5081967;28;19943;-36
2023/07/28 05:02:49;;;;;;;;;;;25.20;67.20;;;;;;5082083;28;19914;-36
2023/07/28 05:05:15;;;;;;;;;;;25.20;67.30;;;;;;5082446;28;19915;-36
2023/07/28 05:07:41;;;;;;;;;;;25.20;67.30;;;;;;5084419;28;19921;-36
2023/07/28 05:10:07;;;;;;;;;;;25.20;68.10;;;;;;5080982;28;19920;-36
2023/07/28 05:12:33;;;;;;;;;;;25.20;67.40;;;;;;5085753;28;19968;-36
2023/07/28 05:14:59;;;;;;;;;;;25.20;67.50;;;;;;5085183;28;19912;-36
2023/07/28 05:17:25;;;;;;;;;;;25.20;67.70;;;;;;5085707;28;19959;-36
2023/07/28 05:19:51;;;;;;;;;;;25.20;67.60;;;;;;5086284;28;19919;-36
2023/07/28 05:22:17;;;;;;;;;;;25.20;67.80;;;;;;5080317;28;19916;-36
2023/07/28 05:24:44;;;;;;;;;;;25.20;67.80;;;;;;5083419;28;19912;-36
2023/07/28 05:27:10;;;;;;;;;;;25.20;67.80;;;;;;5086127;28;19908;-36
2023/07/28 05:29:56;;;;;;;;;;;25.20;67.90;;;;;;5084998;28;19913;-36
2023/07/28 05:32:22;;;;;;;;;;;25.20;68.00;;;;;;4996128;28;19928;-36
2023/07/28 05:34:48;;;;;;;;;;;25.20;68.00;;;;;;5003578;28;20000;-36
2023/07/28 05:37:14;;;;;;;;;;;25.20;68.10;;;;;;4998494;28;20011;-36
2023/07/28 05:39:40;;;;;;;;;;;25.20;68.10;;;;;;5001143;28;19959;-36
2023/07/28 05:42:06;;;;;;;;;;;25.20;68.00;;;;;;5003688;28;19977;-36
2023/07/28 05:44:32;;;;;;;;;;;25.10;68.00;;;;;;5003209;28;19949;-36
2023/07/28 05:46:58;;;;;;;;;;;25.20;68.20;;;;;;5003588;28;19918;-36
2023/07/28 05:49:24;;;;;;;;;;;25.10;68.00;;;;;;5003411;28;20441;-36
2023/07/28 05:51:50;;;;;;;;;;;25.10;68.00;;;;;;5003125;28;19921;-36
2023/07/28 05:54:16;;;;;;;;;;;25.10;68.10;;;;;;5002889;28;20586;-36
2023/07/28 05:56:42;;;;;;;;;;;25.10;68.10;;;;;;5002662;28;19925;-36
2023/07/28 05:59:08;;;;;;;;;;;25.10;68.10;;;;;;5003446;28;19922;-36
2023/07/28 06:01:34;;;;;;;;;;;25.10;68.20;;;;;;5002945;28;20456;-36
2023/07/28 06:04:00;;;;;;;;;;;25.10;68.20;;;;;;5003158;28;20040;-36
2023/07/28 06:06:26;;;;;;;;;;;25.10;68.20;;;;;;4991179;28;19921;-35
2023/07/28 06:08:53;;;;;;;;;;;25.10;68.30;;;;;;5023313;28;19916;-36
2023/07/28 06:11:18;;;;;;;;;;;25.10;68.20;;;;;;5085024;28;19931;-35
2023/07/28 06:13:46;;;;;;;;;;;25.10;68.20;;;;;;5084507;28;20471;-36
2023/07/28 06:16:12;;;;;;;;;;;25.10;68.30;;;;;;5082858;28;19912;-36
2023/07/28 06:18:38;;;;;;;;;;;25.10;68.30;;;;;;5083743;28;19913;-36
2023/07/28 06:21:04;;;;;;;;;;;25.10;68.40;;;;;;5085148;28;19912;-36
2023/07/28 06:23:29;;;;;;;;;;;25.10;68.40;;;;;;5084726;28;19912;-35
2023/07/28 06:25:56;;;;;;;;;;;25.00;68.30;;;;;;5084778;28;19920;-36
2023/07/28 06:28:22;;;;;;;;;;;25.00;68.30;;;;;;5084761;28;19913;-36
2023/07/28 06:30:47;;;;;;;;;;;25.00;68.30;;;;;;5081331;28;19912;-36
2023/07/28 06:33:13;;;;;;;;;;;25.00;68.30;;;;;;5073774;28;19984;-36
2023/07/28 06:35:39;;;;;;;;;;;25.00;68.30;;;;;;5083039;28;20363;-36
2023/07/28 06:38:05;;;;;;;;;;;25.00;68.40;;;;;;5075729;28;19919;-36
2023/07/28 06:40:31;;;;;;;;;;;25.00;68.40;;;;;;5083809;28;19916;-36
2023/07/28 06:42:57;;;;;;;;;;;25.00;68.40;;;;;;5083919;28;19912;-35
2023/07/28 06:45:23;;;;;;;;;;;25.00;68.40;;;;;;5083279;28;19961;-35
2023/07/28 06:47:49;;;;;;;;;;;25.00;68.40;;;;;;5083619;28;19927;-36
2023/07/28 06:50:15;;;;;;;;;;;25.00;68.40;;;;;;5084695;28;19912;-36
2023/07/28 06:52:40;;;;;;;;;;;25.00;68.40;;;;;;5083385;28;19917;-36
2023/07/28 06:55:07;;;;;;;;;;;25.00;68.40;;;;;;5083993;28;19959;-36
2023/07/28 06:57:34;;;;;;;;;;;25.00;68.40;;;;;;5082919;28;19983;-36
2023/07/28 07:00:00;;;;;;;;;;;25.00;68.40;;;;;;5077741;28;19908;-36
2023/07/28 07:02:26;;;;;;;;;;;25.00;68.40;;;;;;5081518;28;19947;-36
2023/07/28 07:04:52;;;;;;;;;;;25.00;68.40;;;;;;5084050;28;20643;-36
2023/07/28 07:07:18;;;;;;;;;;;25.00;68.40;;;;;;5083620;28;20382;-36
2023/07/28 07:09:45;;;;;;;;;;;25.00;68.40;;;;;;5082610;28;20023;-36
2023/07/28 07:12:10;;;;;;;;;;;24.90;68.40;;;;;;5083991;28;20317;-36
2023/07/28 07:14:36;;;;;;;;;;;25.00;68.40;;;;;;5083275;28;19908;-35
2023/07/28 07:17:02;;;;;;;;;;;24.90;68.40;;;;;;5078038;28;19927;-36
2023/07/28 07:19:29;;;;;;;;;;;25.00;68.50;;;;;;5083234;28;20057;-35
2023/07/28 07:21:55;;;;;;;;;;;25.00;68.50;;;;;;5079880;28;19979;-36
2023/07/28 07:24:21;;;;;;;;;;;25.00;68.50;;;;;;5083778;28;19916;-36
2023/07/28 07:26:47;;;;;;;;;;;24.90;68.60;;;;;;5082722;28;19912;-36
2023/07/28 07:29:12;;;;;;;;;;;25.00;68.60;;;;;;5083358;28;19912;-36
2023/07/28 07:31:38;;;;;;;;;;;24.90;68.60;;;;;;5077657;28;19925;-36
2023/07/28 07:34:04;;;;;;;;;;;24.90;68.70;;;;;;5082998;28;19912;-36
2023/07/28 07:36:30;;;;;;;;;;;24.90;68.60;;;;;;5082425;28;19973;-35
2023/07/28 07:38:56;;;;;;;;;;;24.90;68.70;;;;;;5083182;28;19936;-36
2023/07/28 07:41:23;;;;;;;;;;;24.90;68.70;;;;;;5082995;28;19912;-35
2023/07/28 07:43:49;;;;;;;;;;;24.90;68.60;;;;;;5083049;28;20944;-36
2023/07/28 07:46:15;;;;;;;;;;;24.90;68.60;;;;;;5076632;28;19919;-36
2023/07/28 07:48:41;;;;;;;;;;;24.90;68.70;;;;;;5075751;28;19908;-36
2023/07/28 07:51:07;;;;;;;;;;;24.90;68.70;;;;;;5083084;28;19952;-35
2023/07/28 07:53:33;;;;;;;;;;;24.90;68.70;;;;;;5082362;28;19973;-36
2023/07/28 07:55:59;;;;;;;;;;;24.90;68.70;;;;;;5082519;28;19922;-36
2023/07/28 07:58:25;;;;;;;;;;;24.90;68.70;;;;;;5082562;28;20011;-36
2023/07/28 08:00:51;;;;;;;;;;;24.90;68.80;;;;;;5082792;28;19916;-39
2023/07/28 08:03:17;;;;;;;;;;;24.80;68.70;;;;;;5074444;28;19908;-36
2023/07/28 08:05:43;;;;;;;;;;;24.80;68.70;;;;;;5082076;28;19919;-36
2023/07/28 08:08:09;;;;;;;;;;;24.80;68.80;;;;;;5082547;28;19983;-36
2023/07/28 08:10:35;;;;;;;;;;;24.80;68.70;;;;;;5082125;28;19920;-36
2023/07/28 08:13:01;;;;;;;;;;;24.80;68.70;;;;;;5081308;28;20456;-36
2023/07/28 08:15:27;;;;;;;;;;;24.80;68.70;;;;;;5079374;28;20349;-35
2023/07/28 08:17:53;;;;;;;;;;;24.80;68.70;;;;;;5082867;28;20003;-36
2023/07/28 08:20:19;;;;;;;;;;;24.80;68.80;;;;;;5080601;28;19923;-36
2023/07/28 08:22:44;;;;;;;;;;;24.80;69.60;;;;;;5082059;28;19912;-36
2023/07/28 08:25:10;;;;;;;;;;;24.80;68.80;;;;;;5082601;28;20053;-36
2023/07/28 08:27:36;;;;;;;;;;;24.80;68.90;;;;;;5081550;28;19908;-36
2023/07/28 08:30:03;;;;;;;;;;;24.80;68.90;;;;;;5082718;28;19919;-35
2023/07/28 08:32:28;;;;;;;;;;;24.80;68.90;;;;;;5082394;28;19924;-36
2023/07/28 08:34:54;;;;;;;;;;;24.80;68.90;;;;;;5082654;28;19982;-36
2023/07/28 08:37:20;;;;;;;;;;;24.80;68.90;;;;;;5076391;28;19923;-36
2023/07/28 08:39:46;;;;;;;;;;;24.80;68.90;;;;;;5082372;28;19912;-36
2023/07/28 08:42:12;;;;;;;;;;;24.80;69.00;;;;;;5081750;28;19912;-36
2023/07/28 08:44:38;;;;;;;;;;;24.80;68.90;;;;;;5081844;28;20070;-36
2023/07/28 08:47:04;;;;;;;;;;;24.80;68.90;;;;;;5081767;28;19923;-36
2023/07/28 08:49:35;;;;;;;;;;;24.70;68.90;;;;;;5082198;28;19912;-36
2023/07/28 08:52:01;;;;;;;;;;;24.70;68.90;;;;;;5082307;28;19986;-36
2023/07/28 08:54:27;;;;;;;;;;;24.70;68.80;;;;;;5082187;28;19979;-36
2023/07/28 08:56:53;;;;;;;;;;;24.70;69.60;;;;;;5080061;28;20515;-36
2023/07/28 08:59:22;;;;;;;;;;;24.70;69.00;;;;;;5082572;28;19922;-36
2023/07/28 09:01:49;;;;;;;;;;;24.70;68.90;;;;;;5081645;28;19913;-35
2023/07/28 09:04:15;;;;;;;;;;;24.70;68.90;;;;;;5081000;28;19962;-35
2023/07/28 09:06:44;;;;;;;;;;;24.70;68.80;;;;;;5081487;28;19916;-35
2023/07/28 09:09:10;;;;;;;;;;;24.70;68.90;;;;;;5081591;28;19920;-35
2023/07/28 09:11:45;;;;;;;;;;;24.70;68.90;;;;;;5081778;28;19923;-36
2023/07/28 09:14:12;;;;;;;;;;;24.70;69.00;;;;;;5082310;28;19918;-36
2023/07/28 09:16:38;;;;;;;;;;;24.70;69.00;;;;;;5081070;28;19912;-36
2023/07/28 09:19:05;;;;;;;;;;;24.70;69.00;;;;;;5080819;28;20002;-35
2023/07/28 09:21:31;;;;;;;;;;;24.70;69.10;;;;;;5081543;28;19913;-35
2023/07/28 09:23:58;;;;;;;;;;;24.70;69.10;;;;;;5064033;28;19946;-35
2023/07/28 09:26:24;;;;;;;;;;;24.60;69.10;;;;;;5062707;28;19912;-36
2023/07/28 09:28:50;;;;;;;;;;;24.60;69.10;;;;;;5081881;28;19982;-36
2023/07/28 09:31:16;;;;;;;;;;;24.60;69.10;;;;;;5082052;28;19973;-36
2023/07/28 09:33:46;;;;;;;;;;;24.60;69.10;;;;;;5081659;28;19927;-35
2023/07/28 09:36:12;;;;;;;;;;;24.60;69.10;;;;;;5082069;28;19912;-35
2023/07/28 09:38:40;;;;;;;;;;;24.60;69.20;;;;;;5077262;28;19963;-35
2023/07/28 09:41:09;;;;;;;;;;;24.60;69.20;;;;;;5081703;28;19935;-36
2023/07/28 09:43:35;;;;;;;;;;;24.60;69.20;;;;;;5081600;28;19912;-35
2023/07/28 09:46:03;;;;;;;;;;;24.60;69.30;;;;;;5081938;28;19915;-36
2023/07/28 09:48:29;;;;;;;;;;;24.60;70.00;;;;;;5081418;28;19968;-35
2023/07/28 09:50:55;;;;;;;;;;;24.60;69.30;;;;;;5074625;28;19943;-35
2023/07/28 09:53:21;;;;;;;;;;;24.60;69.20;;;;;;5080060;28;19970;-36
2023/07/28 09:55:46;;;;;;;;;;;24.60;69.30;;;;;;5059390;28;19914;-35
2023/07/28 09:58:12;;;;;;;;;;;24.60;69.20;;;;;;5067072;28;19931;-36
2023/07/28 10:00:38;;;;;;;;;;;24.60;69.30;;;;;;5067218;28;19939;-36
2023/07/28 10:03:05;;;;;;;;;;;24.60;69.30;;;;;;5085208;28;19912;-36
2023/07/28 10:05:31;;;;;;;;;;;24.60;69.30;;;;;;5084984;28;19908;-36
2023/07/28 10:07:57;;;;;;;;;;;24.60;69.40;;;;;;5067088;28;19912;-35
2023/07/28 10:10:23;;;;;;;;;;;24.50;69.30;;;;;;5084201;28;19920;-36
2023/07/28 10:12:49;;;;;;;;;;;24.50;69.30;;;;;;5083052;28;19924;-36
2023/07/28 10:15:16;;;;;;;;;;;24.50;69.40;;;;;;5084972;28;19910;-36
2023/07/28 10:17:47;;;;;;;;;;;24.50;69.50;;;;;;5084404;28;19912;-36
2023/07/28 10:20:29;;;;;;;;;;;24.50;69.50;;;;;;5085212;28;19908;-36
2023/07/28 10:23:04;;;;;;;;;;;24.50;69.40;;;;;;5075081;28;19912;-35
2023/07/28 10:25:32;;;;;;;;;;;24.50;69.40;;;;;;5084534;28;19982;-36
2023/07/28 10:27:57;;;;;;;;;;;24.50;69.50;;;;;;5059513;28;20002;-36
2023/07/28 10:30:23;;;;;;;;;;;24.50;69.60;;;;;;5084203;28;19909;-36
2023/07/28 10:32:52;;;;;;;;;;;24.50;69.50;;;;;;5066095;28;20039;-35
2023/07/28 10:35:18;;;;;;;;;;;24.50;69.60;;;;;;5066949;28;20015;-35
2023/07/28 10:37:45;;;;;;;;;;;24.50;69.60;;;;;;5078934;28;19962;-36
2023/07/28 10:40:35;;;;;;;;;;;24.50;69.50;;;;;;5080603;28;19986;-35
2023/07/28 10:43:06;;;;;;;;;;;24.50;69.60;;;;;;5084384;28;19916;-35
2023/07/28 10:45:32;;;;;;;;;;;24.50;69.60;;;;;;5084403;28;20017;-36
2023/07/28 10:48:03;;;;;;;;;;;24.50;69.60;;;;;;5083956;28;19916;-36
2023/07/28 10:50:29;;;;;;;;;;;24.50;69.70;;;;;;5083846;28;20460;-35
2023/07/28 10:52:55;;;;;;;;;;;24.50;69.60;;;;;;5076895;28;19923;-35
2023/07/28 10:55:22;;;;;;;;;;;24.50;69.60;;;;;;5084337;28;20291;-35
2023/07/28 10:57:48;;;;;;;;;;;24.50;69.60;;;;;;5083724;28;19995;-36
2023/07/28 11:00:17;;;;;;;;;;;24.50;69.60;;;;;;5082951;28;19930;-35
2023/07/28 11:02:47;;;;;;;;;;;24.40;69.60;;;;;;5083518;28;20000;-36
2023/07/28 11:05:20;;;;;;;;;;;24.40;69.60;;;;;;5083621;28;19951;-36
2023/07/28 11:07:45;;;;;;;;;;;24.40;69.70;;;;;;5083350;28;19980;-37
2023/07/28 11:10:11;;;;;;;;;;;24.40;69.70;;;;;;5065265;28;19955;-36
2023/07/28 11:12:42;;;;;;;;;;;24.40;69.80;;;;;;5065124;28;19927;-35
2023/07/28 11:15:10;;;;;;;;;;;24.40;69.80;;;;;;5081187;28;19920;-35
2023/07/28 11:17:36;;;;;;;;;;;24.40;69.70;;;;;;5064383;28;19912;-35
2023/07/28 11:20:03;;;;;;;;;;;24.40;69.90;;;;;;5083735;28;19912;-36
2023/07/28 11:22:29;;;;;;;;;;;24.40;69.90;;;;;;5065644;28;19913;-36
2023/07/28 11:24:55;;;;;;;;;;;24.40;70.00;;;;;;5083987;28;19912;-36
2023/07/28 11:27:20;;;;;;;;;;;24.40;70.00;;;;;;5083535;28;19924;-35
2023/07/28 11:29:48;;;;;;;;;;;24.40;69.90;;;;;;5064906;28;19935;-35
2023/07/28 11:32:14;;;;;;;;;;;24.40;69.90;;;;;;5083559;28;19954;-36
2023/07/28 11:34:41;;;;;;;;;;;24.30;69.80;;;;;;5083025;28;19912;-36
2023/07/28 11:37:09;;;;;;;;;;;24.30;69.80;;;;;;5062707;28;20027;-36
2023/07/28 11:39:35;;;;;;;;;;;24.30;69.80;;;;;;5065190;28;19908;-35
2023/07/28 11:42:01;;;;;;;;;;;24.30;69.80;;;;;;5082981;28;19980;-35
2023/07/28 11:44:27;;;;;;;;;;;24.30;69.80;;;;;;5082755;28;19916;-36
2023/07/28 11:46:55;;;;;;;;;;;24.30;69.90;;;;;;5079155;28;20643;-36
2023/07/28 11:49:24;;;;;;;;;;;24.30;69.90;;;;;;5079530;28;19912;-36
2023/07/28 11:51:51;;;;;;;;;;;24.30;69.90;;;;;;5082615;28;19927;-35
2023/07/28 11:54:21;;;;;;;;;;;24.30;69.90;;;;;;5083184;28;19912;-35
2023/07/28 11:56:48;;;;;;;;;;;24.30;69.80;;;;;;5082911;28;20003;-35
2023/07/28 11:59:17;;;;;;;;;;;24.30;69.90;;;;;;5083014;28;19912;-36
2023/07/28 12:01:54;;;;;;;;;;;24.30;70.00;;;;;;5082922;28;20383;-35
2023/07/28 12:04:23;;;;;;;;;;;24.30;70.10;;;;;;5083107;28;20014;-36
2023/07/28 12:07:06;;;;;;;;;;;24.30;70.00;;;;;;5082676;28;19923;-36
2023/07/28 12:10:09;;;;;;;;;;;24.30;70.10;;;;;;5082201;28;20025;-35
2023/07/28 12:12:39;;;;;;;;;;;24.30;70.10;;;;;;5080703;28;19920;-35
2023/07/28 12:15:17;;;;;;;;;;;24.30;70.20;;;;;;5082133;28;19908;-35
2023/07/28 12:17:49;;;;;;;;;;;24.30;70.20;;;;;;5069749;28;19912;-36
2023/07/28 12:20:14;;;;;;;;;;;24.30;71.00;;;;;;5064437;28;19912;-36
2023/07/28 12:22:40;;;;;;;;;;;24.30;70.30;;;;;;5082560;28;20003;-36
2023/07/28 12:25:07;;;;;;;;;;;24.30;70.40;;;;;;5082199;28;19908;-35
2023/07/28 12:27:33;;;;;;;;;;;24.30;71.00;;;;;;5082340;28;19908;-36
2023/07/28 12:29:59;;;;;;;;;;;24.30;70.40;;;;;;5082503;28;20133;-36
2023/07/28 12:32:24;;;;;;;;;;;24.20;70.30;;;;;;5082381;28;20384;-35
2023/07/28 12:34:50;;;;;;;;;;;24.20;70.50;;;;;;5082856;28;19947;-36
2023/07/28 12:37:19;;;;;;;;;;;24.20;70.30;;;;;;5082664;28;19908;-35
2023/07/28 12:39:45;;;;;;;;;;;24.20;70.40;;;;;;5079329;28;19912;-35
2023/07/28 12:42:11;;;;;;;;;;;24.20;70.40;;;;;;5082477;28;19910;-36
2023/07/28 12:44:37;;;;;;;;;;;24.20;70.50;;;;;;5082340;28;19916;-35
2023/07/28 12:47:03;;;;;;;;;;;24.20;70.50;;;;;;5081404;28;20394;-36
2023/07/28 12:49:29;;;;;;;;;;;24.20;70.50;;;;;;5082148;28;19908;-35
2023/07/28 12:51:56;;;;;;;;;;;24.20;70.60;;;;;;5075195;28;19921;-35
2023/07/28 12:54:22;;;;;;;;;;;24.20;70.80;;;;;;5082258;28;19988;-36
2023/07/28 12:56:48;;;;;;;;;;;24.20;70.90;;;;;;5082274;28;19912;-35
2023/07/28 12:59:14;;;;;;;;;;;24.20;70.90;;;;;;5082500;28;20003;-36
2023/07/28 13:01:40;;;;;;;;;;;24.20;71.00;;;;;;5059120;28;19912;-36
2023/07/28 13:04:06;;;;;;;;;;;24.20;71.10;;;;;;5082250;28;19908;-36
2023/07/28 13:06:32;;;;;;;;;;;24.20;71.20;;;;;;5078056;28;19968;-36
2023/07/28 13:08:58;;;;;;;;;;;24.20;71.30;;;;;;5081643;28;19927;-36
2023/07/28 13:11:24;;;;;;;;;;;24.20;71.50;;;;;;5081692;28;19916;-36
2023/07/28 13:13:50;;;;;;;;;;;24.30;71.60;;;;;;5082085;28;20017;-36
2023/07/28 13:16:16;;;;;;;;;;;24.30;71.50;;;;;;5082310;28;19919;-36
2023/07/28 13:18:44;;;;;;;;;;;24.30;71.60;;;;;;5081874;28;19965;-36
2023/07/28 13:21:10;;;;;;;;;;;24.30;71.70;;;;;;5082139;28;19919;-36
2023/07/28 13:23:37;;;;;;;;;;;24.30;71.80;;;;;;5081930;28;19908;-36
2023/07/28 13:26:06;;;;;;;;;;;24.30;71.90;;;;;;5082144;28;19947;-36
2023/07/28 13:28:32;;;;;;;;;;;24.30;71.80;;;;;;5084105;28;19908;-36
2023/07/28 13:30:58;;;;;;;;;;;24.30;71.80;;;;;;5085579;28;19912;-36
2023/07/28 13:33:24;;;;;;;;;;;24.30;71.80;;;;;;5085487;28;19912;-36
2023/07/28 13:35:50;;;;;;;;;;;24.30;71.80;;;;;;5085029;28;19909;-36
2023/07/28 13:38:16;;;;;;;;;;;24.30;71.70;;;;;;5083508;28;19908;-36
2023/07/28 13:40:41;;;;;;;;;;;24.30;71.70;;;;;;5085750;28;20003;-36
2023/07/28 13:43:07;;;;;;;;;;;24.40;71.90;;;;;;5085735;28;19912;-37
2023/07/28 13:45:33;;;;;;;;;;;24.40;72.00;;;;;;5083727;28;19913;-36
2023/07/28 13:47:59;;;;;;;;;;;24.40;72.10;;;;;;5084356;28;19945;-37
2023/07/28 13:50:25;;;;;;;;;;;24.40;72.20;;;;;;5085184;28;19920;-36
2023/07/28 13:52:51;;;;;;;;;;;24.40;72.20;;;;;;5085313;28;19923;-36
2023/07/28 13:55:17;;;;;;;;;;;24.40;72.30;;;;;;5085581;28;19912;-36
2023/07/28 13:57:43;;;;;;;;;;;24.50;72.40;;;;;;5084948;28;19943;-36
2023/07/28 14:00:09;;;;;;;;;;;24.50;72.40;;;;;;5085459;28;19916;-37
2023/07/28 14:02:36;;;;;;;;;;;24.50;72.60;;;;;;5085310;28;19936;-36
2023/07/28 14:05:02;;;;;;;;;;;24.50;72.60;;;;;;5085573;28;19912;-36
2023/07/28 14:07:28;;;;;;;;;;;24.50;72.70;;;;;;5084782;28;19919;-36
2023/07/28 14:09:53;;;;;;;;;;;24.50;72.80;;;;;;5085336;28;19920;-36
2023/07/28 14:12:19;;;;;;;;;;;24.60;73.00;;;;;;5084760;28;19967;-37